sensor_id;sensor_type;location;lat;lon;timestamp;P1;durP1;ratioP1;P2;durP2;ratioP2
24644;SDS011;12780;45.502;9.146;2023-02-26T00:00:45;51.97;;;25.30;;
24644;SDS011;12780;45.502;9.146;2023-02-26T00:03:10;54.50;;;24.25;;
24644;SDS011;12780;45.502;9.146;2023-02-26T00:05:36;47.75;;;23.60;;
24644;SDS011;12780;45.502;9.146;2023-02-26T00:08:01;43.90;;;22.40;;
24644;SDS011;12780;45.502;9.146;2023-02-26T00:10:30;53.08;;;23.55;;
24644;SDS011;12780;45.502;9.146;2023-02-26T00:12:56;55.05;;;25.38;;
24644;SDS011;12780;45.502;9.146;2023-02-26T00:15:22;55.28;;;25.35;;
24644;SDS011;12780;45.502;9.146;2023-02-26T00:17:50;60.83;;;26.55;;
24644;SDS011;12780;45.502;9.146;2023-02-26T00:20:18;62.85;;;26.90;;
24644;SDS011;12780;45.502;9.146;2023-02-26T00:22:43;49.22;;;24.25;;
24644;SDS011;12780;45.502;9.146;2023-02-26T00:25:09;56.40;;;25.35;;
24644;SDS011;12780;45.502;9.146;2023-02-26T00:27:36;55.65;;;25.33;;
24644;SDS011;12780;45.502;9.146;2023-02-26T00:30:03;60.83;;;26.45;;
24644;SDS011;12780;45.502;9.146;2023-02-26T00:32:30;64.07;;;26.30;;
24644;SDS011;12780;45.502;9.146;2023-02-26T00:34:56;52.97;;;25.13;;
24644;SDS011;12780;45.502;9.146;2023-02-26T00:42:51;56.47;;;25.42;;
24644;SDS011;12780;45.502;9.146;2023-02-26T00:45:17;52.80;;;24.40;;
24644;SDS011;12780;45.502;9.146;2023-02-26T00:50:20;47.85;;;22.48;;
24644;SDS011;12780;45.502;9.146;2023-02-26T00:53:01;52.75;;;24.17;;
24644;SDS011;12780;45.502;9.146;2023-02-26T00:55:37;55.80;;;23.08;;
24644;SDS011;12780;45.502;9.146;2023-02-26T00:58:03;45.40;;;23.17;;
24644;SDS011;12780;45.502;9.146;2023-02-26T01:00:29;51.78;;;23.13;;
24644;SDS011;12780;45.502;9.146;2023-02-26T01:02:54;47.17;;;22.73;;
24644;SDS011;12780;45.502;9.146;2023-02-26T01:05:20;52.15;;;22.60;;
24644;SDS011;12780;45.502;9.146;2023-02-26T01:07:49;48.38;;;23.48;;
24644;SDS011;12780;45.502;9.146;2023-02-26T01:10:29;58.17;;;23.88;;
24644;SDS011;12780;45.502;9.146;2023-02-26T01:12:55;52.85;;;24.17;;
24644;SDS011;12780;45.502;9.146;2023-02-26T01:15:21;50.92;;;23.98;;
24644;SDS011;12780;45.502;9.146;2023-02-26T01:17:50;50.50;;;23.83;;
24644;SDS011;12780;45.502;9.146;2023-02-26T01:20:20;54.05;;;23.80;;
24644;SDS011;12780;45.502;9.146;2023-02-26T01:25:15;58.53;;;23.33;;
24644;SDS011;12780;45.502;9.146;2023-02-26T01:27:45;53.75;;;24.90;;
24644;SDS011;12780;45.502;9.146;2023-02-26T01:30:11;54.92;;;23.00;;
24644;SDS011;12780;45.502;9.146;2023-02-26T01:44:09;49.60;;;22.67;;
24644;SDS011;12780;45.502;9.146;2023-02-26T01:46:57;49.33;;;21.35;;
24644;SDS011;12780;45.502;9.146;2023-02-26T01:49:27;53.33;;;22.50;;
24644;SDS011;12780;45.502;9.146;2023-02-26T01:51:55;43.10;;;21.90;;
24644;SDS011;12780;45.502;9.146;2023-02-26T01:54:29;50.13;;;22.38;;
24644;SDS011;12780;45.502;9.146;2023-02-26T01:57:00;51.33;;;23.45;;
24644;SDS011;12780;45.502;9.146;2023-02-26T01:59:45;48.35;;;23.55;;
24644;SDS011;12780;45.502;9.146;2023-02-26T02:02:15;51.83;;;23.73;;
24644;SDS011;12780;45.502;9.146;2023-02-26T02:04:46;45.75;;;21.58;;
24644;SDS011;12780;45.502;9.146;2023-02-26T02:07:13;41.88;;;20.92;;
24644;SDS011;12780;45.502;9.146;2023-02-26T02:09:39;48.72;;;21.65;;
24644;SDS011;12780;45.502;9.146;2023-02-26T02:12:31;50.30;;;22.25;;
24644;SDS011;12780;45.502;9.146;2023-02-26T02:17:43;53.20;;;22.67;;
24644;SDS011;12780;45.502;9.146;2023-02-26T02:31:00;59.20;;;23.38;;
24644;SDS011;12780;45.502;9.146;2023-02-26T02:33:46;55.83;;;23.60;;
24644;SDS011;12780;45.502;9.146;2023-02-26T02:39:32;48.35;;;24.40;;
24644;SDS011;12780;45.502;9.146;2023-02-26T02:42:15;45.65;;;22.38;;
24644;SDS011;12780;45.502;9.146;2023-02-26T02:44:47;44.95;;;21.20;;
24644;SDS011;12780;45.502;9.146;2023-02-26T02:47:18;43.28;;;22.02;;
24644;SDS011;12780;45.502;9.146;2023-02-26T02:49:47;47.50;;;21.52;;
24644;SDS011;12780;45.502;9.146;2023-02-26T02:52:25;48.58;;;22.77;;
24644;SDS011;12780;45.502;9.146;2023-02-26T02:55:33;46.58;;;21.63;;
24644;SDS011;12780;45.502;9.146;2023-02-26T02:57:58;46.13;;;22.05;;
24644;SDS011;12780;45.502;9.146;2023-02-26T03:00:35;47.55;;;22.38;;
24644;SDS011;12780;45.502;9.146;2023-02-26T03:05:38;57.55;;;24.08;;
24644;SDS011;12780;45.502;9.146;2023-02-26T03:08:11;52.15;;;24.13;;
24644;SDS011;12780;45.502;9.146;2023-02-26T03:10:39;52.90;;;22.88;;
24644;SDS011;12780;45.502;9.146;2023-02-26T03:13:05;48.35;;;25.00;;
24644;SDS011;12780;45.502;9.146;2023-02-26T03:15:38;49.47;;;24.42;;
24644;SDS011;12780;45.502;9.146;2023-02-26T03:18:17;51.25;;;22.13;;
24644;SDS011;12780;45.502;9.146;2023-02-26T03:20:51;53.97;;;23.90;;
24644;SDS011;12780;45.502;9.146;2023-02-26T03:23:35;53.40;;;24.20;;
24644;SDS011;12780;45.502;9.146;2023-02-26T03:26:26;48.40;;;22.02;;
24644;SDS011;12780;45.502;9.146;2023-02-26T03:28:58;48.47;;;21.33;;
24644;SDS011;12780;45.502;9.146;2023-02-26T03:31:49;51.17;;;23.73;;
24644;SDS011;12780;45.502;9.146;2023-02-26T03:34:22;45.60;;;23.23;;
24644;SDS011;12780;45.502;9.146;2023-02-26T03:36:56;42.83;;;21.70;;
24644;SDS011;12780;45.502;9.146;2023-02-26T03:39:30;50.17;;;22.70;;
24644;SDS011;12780;45.502;9.146;2023-02-26T03:47:20;43.47;;;20.48;;
24644;SDS011;12780;45.502;9.146;2023-02-26T03:49:58;51.80;;;22.80;;
24644;SDS011;12780;45.502;9.146;2023-02-26T03:52:27;43.95;;;21.20;;
24644;SDS011;12780;45.502;9.146;2023-02-26T03:55:20;43.03;;;21.27;;
24644;SDS011;12780;45.502;9.146;2023-02-26T03:57:46;57.92;;;21.60;;
24644;SDS011;12780;45.502;9.146;2023-02-26T04:00:13;48.20;;;21.67;;
24644;SDS011;12780;45.502;9.146;2023-02-26T04:05:41;53.22;;;23.23;;
24644;SDS011;12780;45.502;9.146;2023-02-26T04:08:11;50.58;;;22.50;;
24644;SDS011;12780;45.502;9.146;2023-02-26T04:10:39;51.47;;;22.75;;
24644;SDS011;12780;45.502;9.146;2023-02-26T04:13:11;50.80;;;20.27;;
24644;SDS011;12780;45.502;9.146;2023-02-26T04:15:36;43.45;;;19.63;;
24644;SDS011;12780;45.502;9.146;2023-02-26T04:18:02;40.20;;;19.20;;
24644;SDS011;12780;45.502;9.146;2023-02-26T04:20:28;37.47;;;16.95;;
24644;SDS011;12780;45.502;9.146;2023-02-26T04:22:53;41.78;;;17.73;;
24644;SDS011;12780;45.502;9.146;2023-02-26T04:25:19;39.00;;;18.17;;
24644;SDS011;12780;45.502;9.146;2023-02-26T04:27:45;36.67;;;16.85;;
24644;SDS011;12780;45.502;9.146;2023-02-26T04:30:10;39.92;;;17.40;;
24644;SDS011;12780;45.502;9.146;2023-02-26T04:32:36;41.60;;;18.30;;
24644;SDS011;12780;45.502;9.146;2023-02-26T04:35:02;47.10;;;19.05;;
24644;SDS011;12780;45.502;9.146;2023-02-26T04:37:28;44.08;;;20.38;;
24644;SDS011;12780;45.502;9.146;2023-02-26T04:39:53;46.75;;;21.27;;
24644;SDS011;12780;45.502;9.146;2023-02-26T04:42:19;58.28;;;22.65;;
24644;SDS011;12780;45.502;9.146;2023-02-26T04:44:44;58.25;;;24.65;;
24644;SDS011;12780;45.502;9.146;2023-02-26T04:47:10;67.43;;;26.40;;
24644;SDS011;12780;45.502;9.146;2023-02-26T04:49:35;65.55;;;28.88;;
24644;SDS011;12780;45.502;9.146;2023-02-26T04:52:01;78.43;;;29.52;;
24644;SDS011;12780;45.502;9.146;2023-02-26T04:54:26;68.05;;;30.55;;
24644;SDS011;12780;45.502;9.146;2023-02-26T04:56:52;82.85;;;31.17;;
24644;SDS011;12780;45.502;9.146;2023-02-26T04:59:17;94.82;;;34.13;;
24644;SDS011;12780;45.502;9.146;2023-02-26T05:01:43;87.47;;;33.67;;
24644;SDS011;12780;45.502;9.146;2023-02-26T05:04:09;89.60;;;36.42;;
24644;SDS011;12780;45.502;9.146;2023-02-26T05:06:34;90.78;;;36.42;;
24644;SDS011;12780;45.502;9.146;2023-02-26T05:09:00;104.93;;;40.15;;
24644;SDS011;12780;45.502;9.146;2023-02-26T05:11:25;107.63;;;41.08;;
24644;SDS011;12780;45.502;9.146;2023-02-26T05:13:51;97.72;;;38.38;;
24644;SDS011;12780;45.502;9.146;2023-02-26T05:16:16;107.95;;;43.13;;
24644;SDS011;12780;45.502;9.146;2023-02-26T05:18:42;114.93;;;42.03;;
24644;SDS011;12780;45.502;9.146;2023-02-26T05:21:08;106.78;;;40.20;;
24644;SDS011;12780;45.502;9.146;2023-02-26T05:23:33;108.55;;;42.33;;
24644;SDS011;12780;45.502;9.146;2023-02-26T05:25:59;83.53;;;32.60;;
24644;SDS011;12780;45.502;9.146;2023-02-26T05:28:25;85.97;;;31.85;;
24644;SDS011;12780;45.502;9.146;2023-02-26T05:30:50;53.60;;;21.98;;
24644;SDS011;12780;45.502;9.146;2023-02-26T05:33:16;53.95;;;20.23;;
24644;SDS011;12780;45.502;9.146;2023-02-26T05:35:43;40.35;;;15.95;;
24644;SDS011;12780;45.502;9.146;2023-02-26T05:38:09;38.63;;;13.38;;
24644;SDS011;12780;45.502;9.146;2023-02-26T05:40:35;42.08;;;14.70;;
24644;SDS011;12780;45.502;9.146;2023-02-26T05:43:00;31.75;;;11.63;;
24644;SDS011;12780;45.502;9.146;2023-02-26T05:45:26;26.17;;;8.02;;
24644;SDS011;12780;45.502;9.146;2023-02-26T05:47:51;19.98;;;6.32;;
24644;SDS011;12780;45.502;9.146;2023-02-26T05:50:17;11.82;;;3.75;;
24644;SDS011;12780;45.502;9.146;2023-02-26T05:52:43;15.30;;;3.05;;
24644;SDS011;12780;45.502;9.146;2023-02-26T05:55:08;6.80;;;2.45;;
24644;SDS011;12780;45.502;9.146;2023-02-26T05:57:34;7.78;;;2.42;;
24644;SDS011;12780;45.502;9.146;2023-02-26T06:00:00;6.47;;;2.30;;
24644;SDS011;12780;45.502;9.146;2023-02-26T06:02:25;9.77;;;2.40;;
24644;SDS011;12780;45.502;9.146;2023-02-26T06:04:51;5.78;;;1.98;;
24644;SDS011;12780;45.502;9.146;2023-02-26T06:07:16;8.75;;;1.60;;
24644;SDS011;12780;45.502;9.146;2023-02-26T06:09:42;7.45;;;1.77;;
24644;SDS011;12780;45.502;9.146;2023-02-26T06:12:08;5.05;;;1.70;;
24644;SDS011;12780;45.502;9.146;2023-02-26T06:14:34;3.72;;;1.48;;
24644;SDS011;12780;45.502;9.146;2023-02-26T06:17:00;3.75;;;1.60;;
24644;SDS011;12780;45.502;9.146;2023-02-26T06:19:27;2.70;;;1.52;;
24644;SDS011;12780;45.502;9.146;2023-02-26T06:21:53;3.13;;;1.23;;
24644;SDS011;12780;45.502;9.146;2023-02-26T06:24:18;3.78;;;1.23;;
24644;SDS011;12780;45.502;9.146;2023-02-26T06:26:44;2.55;;;1.05;;
24644;SDS011;12780;45.502;9.146;2023-02-26T06:29:10;4.60;;;1.02;;
24644;SDS011;12780;45.502;9.146;2023-02-26T06:31:35;2.95;;;1.30;;
24644;SDS011;12780;45.502;9.146;2023-02-26T06:34:01;2.92;;;1.20;;
24644;SDS011;12780;45.502;9.146;2023-02-26T06:36:27;4.00;;;1.20;;
24644;SDS011;12780;45.502;9.146;2023-02-26T06:38:53;7.10;;;1.27;;
24644;SDS011;12780;45.502;9.146;2023-02-26T06:41:18;2.63;;;1.10;;
24644;SDS011;12780;45.502;9.146;2023-02-26T06:43:44;1.45;;;0.80;;
24644;SDS011;12780;45.502;9.146;2023-02-26T06:46:09;3.15;;;1.00;;
24644;SDS011;12780;45.502;9.146;2023-02-26T06:48:35;5.50;;;1.08;;
24644;SDS011;12780;45.502;9.146;2023-02-26T06:51:00;2.72;;;0.93;;
24644;SDS011;12780;45.502;9.146;2023-02-26T06:53:26;1.90;;;0.93;;
24644;SDS011;12780;45.502;9.146;2023-02-26T06:55:52;2.17;;;1.10;;
24644;SDS011;12780;45.502;9.146;2023-02-26T06:58:18;3.28;;;0.90;;
24644;SDS011;12780;45.502;9.146;2023-02-26T07:00:44;1.33;;;0.90;;
24644;SDS011;12780;45.502;9.146;2023-02-26T07:03:11;1.35;;;0.80;;
24644;SDS011;12780;45.502;9.146;2023-02-26T07:05:38;2.95;;;1.10;;
24644;SDS011;12780;45.502;9.146;2023-02-26T07:08:04;2.85;;;1.13;;
24644;SDS011;12780;45.502;9.146;2023-02-26T07:10:33;2.53;;;0.77;;
24644;SDS011;12780;45.502;9.146;2023-02-26T07:12:59;4.20;;;0.90;;
24644;SDS011;12780;45.502;9.146;2023-02-26T07:15:25;1.88;;;1.20;;
24644;SDS011;12780;45.502;9.146;2023-02-26T07:17:50;3.33;;;1.20;;
24644;SDS011;12780;45.502;9.146;2023-02-26T07:20:16;1.15;;;0.80;;
24644;SDS011;12780;45.502;9.146;2023-02-26T07:22:42;4.72;;;0.80;;
24644;SDS011;12780;45.502;9.146;2023-02-26T07:25:08;2.00;;;1.25;;
24644;SDS011;12780;45.502;9.146;2023-02-26T07:27:34;2.55;;;0.98;;
24644;SDS011;12780;45.502;9.146;2023-02-26T07:30:00;1.45;;;1.00;;
24644;SDS011;12780;45.502;9.146;2023-02-26T07:32:26;2.63;;;0.90;;
24644;SDS011;12780;45.502;9.146;2023-02-26T07:34:52;1.23;;;0.70;;
24644;SDS011;12780;45.502;9.146;2023-02-26T07:37:17;2.47;;;0.90;;
24644;SDS011;12780;45.502;9.146;2023-02-26T07:39:43;1.65;;;0.98;;
24644;SDS011;12780;45.502;9.146;2023-02-26T07:42:09;5.65;;;1.30;;
24644;SDS011;12780;45.502;9.146;2023-02-26T07:44:34;3.67;;;1.73;;
24644;SDS011;12780;45.502;9.146;2023-02-26T07:47:00;1.95;;;1.10;;
24644;SDS011;12780;45.502;9.146;2023-02-26T07:49:26;2.55;;;1.00;;
24644;SDS011;12780;45.502;9.146;2023-02-26T07:51:51;1.48;;;0.88;;
24644;SDS011;12780;45.502;9.146;2023-02-26T07:54:17;2.08;;;0.60;;
24644;SDS011;12780;45.502;9.146;2023-02-26T07:56:43;1.05;;;0.52;;
24644;SDS011;12780;45.502;9.146;2023-02-26T07:59:09;2.20;;;0.73;;
24644;SDS011;12780;45.502;9.146;2023-02-26T08:01:35;2.67;;;0.65;;
24644;SDS011;12780;45.502;9.146;2023-02-26T08:04:01;2.30;;;0.70;;
24644;SDS011;12780;45.502;9.146;2023-02-26T08:06:27;2.17;;;0.47;;
24644;SDS011;12780;45.502;9.146;2023-02-26T08:08:53;4.80;;;0.60;;
24644;SDS011;12780;45.502;9.146;2023-02-26T08:11:18;1.60;;;0.68;;
24644;SDS011;12780;45.502;9.146;2023-02-26T08:13:44;1.58;;;0.70;;
24644;SDS011;12780;45.502;9.146;2023-02-26T08:16:09;2.03;;;0.52;;
24644;SDS011;12780;45.502;9.146;2023-02-26T08:18:35;1.83;;;0.70;;
24644;SDS011;12780;45.502;9.146;2023-02-26T08:21:01;2.78;;;0.57;;
24644;SDS011;12780;45.502;9.146;2023-02-26T08:23:26;1.60;;;0.80;;
24644;SDS011;12780;45.502;9.146;2023-02-26T08:26:02;1.88;;;0.63;;
24644;SDS011;12780;45.502;9.146;2023-02-26T08:28:32;2.45;;;0.50;;
24644;SDS011;12780;45.502;9.146;2023-02-26T08:30:58;2.00;;;0.70;;
24644;SDS011;12780;45.502;9.146;2023-02-26T08:33:24;2.28;;;0.55;;
24644;SDS011;12780;45.502;9.146;2023-02-26T08:35:50;1.90;;;0.60;;
24644;SDS011;12780;45.502;9.146;2023-02-26T08:38:16;1.75;;;0.65;;
24644;SDS011;12780;45.502;9.146;2023-02-26T08:40:42;0.80;;;0.60;;
24644;SDS011;12780;45.502;9.146;2023-02-26T08:43:08;2.45;;;0.70;;
24644;SDS011;12780;45.502;9.146;2023-02-26T08:45:35;0.82;;;0.60;;
24644;SDS011;12780;45.502;9.146;2023-02-26T08:48:01;0.68;;;0.40;;
24644;SDS011;12780;45.502;9.146;2023-02-26T08:50:26;1.27;;;0.50;;
24644;SDS011;12780;45.502;9.146;2023-02-26T08:52:52;1.00;;;0.50;;
24644;SDS011;12780;45.502;9.146;2023-02-26T08:55:18;6.00;;;0.70;;
24644;SDS011;12780;45.502;9.146;2023-02-26T08:57:44;0.90;;;0.70;;
24644;SDS011;12780;45.502;9.146;2023-02-26T09:00:10;6.00;;;0.73;;
24644;SDS011;12780;45.502;9.146;2023-02-26T09:02:36;1.48;;;0.80;;
24644;SDS011;12780;45.502;9.146;2023-02-26T09:05:02;1.70;;;0.60;;
24644;SDS011;12780;45.502;9.146;2023-02-26T09:07:28;3.60;;;0.70;;
24644;SDS011;12780;45.502;9.146;2023-02-26T09:09:54;1.67;;;0.80;;
24644;SDS011;12780;45.502;9.146;2023-02-26T09:12:19;1.05;;;0.70;;
24644;SDS011;12780;45.502;9.146;2023-02-26T09:14:45;0.75;;;0.60;;
24644;SDS011;12780;45.502;9.146;2023-02-26T09:17:12;2.42;;;0.65;;
24644;SDS011;12780;45.502;9.146;2023-02-26T09:19:38;4.63;;;0.60;;
24644;SDS011;12780;45.502;9.146;2023-02-26T09:22:03;0.60;;;0.50;;
24644;SDS011;12780;45.502;9.146;2023-02-26T09:24:29;0.70;;;0.52;;
24644;SDS011;12780;45.502;9.146;2023-02-26T09:26:55;3.90;;;0.70;;
24644;SDS011;12780;45.502;9.146;2023-02-26T09:29:20;0.57;;;0.57;;
24644;SDS011;12780;45.502;9.146;2023-02-26T09:31:46;1.75;;;0.60;;
24644;SDS011;12780;45.502;9.146;2023-02-26T09:34:11;1.58;;;0.82;;
24644;SDS011;12780;45.502;9.146;2023-02-26T09:36:37;1.75;;;1.00;;
24644;SDS011;12780;45.502;9.146;2023-02-26T09:39:04;0.80;;;0.55;;
24644;SDS011;12780;45.502;9.146;2023-02-26T09:41:33;2.05;;;0.70;;
24644;SDS011;12780;45.502;9.146;2023-02-26T09:47:04;1.55;;;0.52;;
24644;SDS011;12780;45.502;9.146;2023-02-26T09:49:46;2.50;;;0.75;;
24644;SDS011;12780;45.502;9.146;2023-02-26T09:55:38;2.08;;;0.50;;
24644;SDS011;12780;45.502;9.146;2023-02-26T09:58:20;0.57;;;0.50;;
24644;SDS011;12780;45.502;9.146;2023-02-26T10:16:47;1.15;;;0.70;;
24644;SDS011;12780;45.502;9.146;2023-02-26T10:19:17;3.30;;;0.93;;
24644;SDS011;12780;45.502;9.146;2023-02-26T10:21:53;1.65;;;0.90;;
24644;SDS011;12780;45.502;9.146;2023-02-26T10:24:27;6.35;;;0.90;;
24644;SDS011;12780;45.502;9.146;2023-02-26T10:27:02;0.70;;;0.40;;
24644;SDS011;12780;45.502;9.146;2023-02-26T10:40:18;1.83;;;0.95;;
24644;SDS011;12780;45.502;9.146;2023-02-26T10:42:57;1.83;;;0.88;;
24644;SDS011;12780;45.502;9.146;2023-02-26T10:50:59;2.00;;;0.93;;
24644;SDS011;12780;45.502;9.146;2023-02-26T10:53:33;0.95;;;0.70;;
24644;SDS011;12780;45.502;9.146;2023-02-26T10:56:07;2.42;;;0.90;;
24644;SDS011;12780;45.502;9.146;2023-02-26T10:58:38;3.10;;;0.90;;
24644;SDS011;12780;45.502;9.146;2023-02-26T11:01:04;1.85;;;0.95;;
24644;SDS011;12780;45.502;9.146;2023-02-26T11:03:38;2.78;;;1.05;;
24644;SDS011;12780;45.502;9.146;2023-02-26T11:06:07;5.65;;;1.55;;
24644;SDS011;12780;45.502;9.146;2023-02-26T11:08:44;1.98;;;1.10;;
24644;SDS011;12780;45.502;9.146;2023-02-26T11:11:34;3.58;;;1.20;;
24644;SDS011;12780;45.502;9.146;2023-02-26T11:14:04;1.98;;;1.02;;
24644;SDS011;12780;45.502;9.146;2023-02-26T11:16:30;3.33;;;1.10;;
24644;SDS011;12780;45.502;9.146;2023-02-26T11:18:57;2.95;;;1.27;;
24644;SDS011;12780;45.502;9.146;2023-02-26T11:21:29;1.95;;;1.10;;
24644;SDS011;12780;45.502;9.146;2023-02-26T11:24:01;2.15;;;1.23;;
24644;SDS011;12780;45.502;9.146;2023-02-26T11:26:39;2.03;;;1.15;;
24644;SDS011;12780;45.502;9.146;2023-02-26T11:29:13;2.15;;;1.23;;
24644;SDS011;12780;45.502;9.146;2023-02-26T11:31:41;3.90;;;1.33;;
24644;SDS011;12780;45.502;9.146;2023-02-26T11:34:07;1.92;;;1.10;;
24644;SDS011;12780;45.502;9.146;2023-02-26T11:36:36;0.88;;;0.60;;
24644;SDS011;12780;45.502;9.146;2023-02-26T11:39:20;2.78;;;1.02;;
24644;SDS011;12780;45.502;9.146;2023-02-26T11:41:48;2.17;;;1.00;;
24644;SDS011;12780;45.502;9.146;2023-02-26T11:44:36;4.05;;;0.98;;
24644;SDS011;12780;45.502;9.146;2023-02-26T11:47:15;1.60;;;1.13;;
24644;SDS011;12780;45.502;9.146;2023-02-26T11:49:44;1.90;;;1.10;;
24644;SDS011;12780;45.502;9.146;2023-02-26T11:55:04;2.67;;;1.30;;
24644;SDS011;12780;45.502;9.146;2023-02-26T11:57:52;2.20;;;1.13;;
24644;SDS011;12780;45.502;9.146;2023-02-26T12:00:20;10.63;;;1.67;;
24644;SDS011;12780;45.502;9.146;2023-02-26T12:02:59;2.08;;;1.45;;
24644;SDS011;12780;45.502;9.146;2023-02-26T12:05:29;1.50;;;1.20;;
24644;SDS011;12780;45.502;9.146;2023-02-26T12:07:55;2.17;;;1.55;;
24644;SDS011;12780;45.502;9.146;2023-02-26T12:10:26;2.38;;;1.45;;
24644;SDS011;12780;45.502;9.146;2023-02-26T12:16:22;2.53;;;1.52;;
24644;SDS011;12780;45.502;9.146;2023-02-26T12:19:10;2.17;;;1.60;;
24644;SDS011;12780;45.502;9.146;2023-02-26T12:50:15;6.07;;;2.50;;
24644;SDS011;12780;45.502;9.146;2023-02-26T12:53:13;3.90;;;2.10;;
24644;SDS011;12780;45.502;9.146;2023-02-26T13:01:05;5.00;;;2.65;;
24644;SDS011;12780;45.502;9.146;2023-02-26T13:03:40;2.63;;;1.67;;
24644;SDS011;12780;45.502;9.146;2023-02-26T13:06:22;2.78;;;1.60;;
24644;SDS011;12780;45.502;9.146;2023-02-26T13:11:49;2.75;;;1.70;;
24644;SDS011;12780;45.502;9.146;2023-02-26T13:19:40;3.25;;;1.80;;
24644;SDS011;12780;45.502;9.146;2023-02-26T13:22:29;5.07;;;1.80;;
24644;SDS011;12780;45.502;9.146;2023-02-26T13:24:59;2.53;;;1.67;;
24644;SDS011;12780;45.502;9.146;2023-02-26T13:27:29;2.35;;;1.60;;
24644;SDS011;12780;45.502;9.146;2023-02-26T13:30:08;2.95;;;1.80;;
24644;SDS011;12780;45.502;9.146;2023-02-26T13:32:38;5.03;;;2.05;;
24644;SDS011;12780;45.502;9.146;2023-02-26T13:35:18;3.30;;;1.98;;
24644;SDS011;12780;45.502;9.146;2023-02-26T13:37:45;3.08;;;1.98;;
24644;SDS011;12780;45.502;9.146;2023-02-26T13:45:59;2.53;;;1.70;;
24644;SDS011;12780;45.502;9.146;2023-02-26T13:51:07;3.15;;;2.08;;
24644;SDS011;12780;45.502;9.146;2023-02-26T13:53:54;4.28;;;2.20;;
24644;SDS011;12780;45.502;9.146;2023-02-26T13:59:02;4.28;;;2.47;;
24644;SDS011;12780;45.502;9.146;2023-02-26T14:06:46;4.23;;;2.17;;
24644;SDS011;12780;45.502;9.146;2023-02-26T14:22:34;3.95;;;1.55;;
24644;SDS011;12780;45.502;9.146;2023-02-26T14:25:12;2.42;;;1.67;;
24644;SDS011;12780;45.502;9.146;2023-02-26T14:27:44;3.65;;;2.15;;
24644;SDS011;12780;45.502;9.146;2023-02-26T14:30:28;2.17;;;1.70;;
24644;SDS011;12780;45.502;9.146;2023-02-26T14:35:39;3.15;;;1.20;;
24644;SDS011;12780;45.502;9.146;2023-02-26T14:38:32;1.95;;;1.60;;
24644;SDS011;12780;45.502;9.146;2023-02-26T14:41:04;2.25;;;1.40;;
24644;SDS011;12780;45.502;9.146;2023-02-26T14:43:37;2.47;;;1.42;;
24644;SDS011;12780;45.502;9.146;2023-02-26T14:46:30;2.22;;;1.40;;
24644;SDS011;12780;45.502;9.146;2023-02-26T14:48:57;2.22;;;1.30;;
24644;SDS011;12780;45.502;9.146;2023-02-26T14:53:55;1.63;;;1.20;;
24644;SDS011;12780;45.502;9.146;2023-02-26T14:57:03;4.28;;;2.20;;
24644;SDS011;12780;45.502;9.146;2023-02-26T15:12:57;3.33;;;1.42;;
24644;SDS011;12780;45.502;9.146;2023-02-26T15:18:51;3.30;;;1.50;;
24644;SDS011;12780;45.502;9.146;2023-02-26T15:24:06;8.65;;;2.95;;
24644;SDS011;12780;45.502;9.146;2023-02-26T15:26:38;2.40;;;1.55;;
24644;SDS011;12780;45.502;9.146;2023-02-26T15:31:41;2.60;;;1.30;;
24644;SDS011;12780;45.502;9.146;2023-02-26T15:34:10;3.33;;;1.50;;
24644;SDS011;12780;45.502;9.146;2023-02-26T15:36:38;4.53;;;1.58;;
24644;SDS011;12780;45.502;9.146;2023-02-26T15:39:08;2.70;;;1.55;;
24644;SDS011;12780;45.502;9.146;2023-02-26T15:41:33;4.07;;;1.50;;
24644;SDS011;12780;45.502;9.146;2023-02-26T15:44:01;3.63;;;1.40;;
24644;SDS011;12780;45.502;9.146;2023-02-26T15:46:35;2.42;;;1.55;;
24644;SDS011;12780;45.502;9.146;2023-02-26T15:49:08;2.13;;;1.33;;
24644;SDS011;12780;45.502;9.146;2023-02-26T15:51:42;3.13;;;1.45;;
24644;SDS011;12780;45.502;9.146;2023-02-26T15:54:13;5.93;;;1.33;;
24644;SDS011;12780;45.502;9.146;2023-02-26T15:56:41;3.28;;;1.55;;
24644;SDS011;12780;45.502;9.146;2023-02-26T15:59:10;4.80;;;1.70;;
24644;SDS011;12780;45.502;9.146;2023-02-26T16:01:49;3.25;;;1.38;;
24644;SDS011;12780;45.502;9.146;2023-02-26T16:04:16;6.28;;;3.38;;
24644;SDS011;12780;45.502;9.146;2023-02-26T16:06:47;3.58;;;1.80;;
24644;SDS011;12780;45.502;9.146;2023-02-26T16:09:18;4.80;;;1.83;;
24644;SDS011;12780;45.502;9.146;2023-02-26T16:11:59;3.78;;;1.70;;
24644;SDS011;12780;45.502;9.146;2023-02-26T16:14:30;2.47;;;1.50;;
24644;SDS011;12780;45.502;9.146;2023-02-26T16:16:59;1.67;;;1.48;;
24644;SDS011;12780;45.502;9.146;2023-02-26T16:19:47;1.63;;;1.23;;
24644;SDS011;12780;45.502;9.146;2023-02-26T16:22:20;2.70;;;1.60;;
24644;SDS011;12780;45.502;9.146;2023-02-26T16:24:53;3.60;;;1.60;;
24644;SDS011;12780;45.502;9.146;2023-02-26T16:27:24;1.92;;;1.40;;
24644;SDS011;12780;45.502;9.146;2023-02-26T16:29:54;2.88;;;1.30;;
24644;SDS011;12780;45.502;9.146;2023-02-26T16:32:21;2.38;;;1.50;;
24644;SDS011;12780;45.502;9.146;2023-02-26T16:34:53;2.20;;;1.40;;
24644;SDS011;12780;45.502;9.146;2023-02-26T16:39:57;3.88;;;1.40;;
24644;SDS011;12780;45.502;9.146;2023-02-26T16:42:52;3.80;;;1.60;;
24644;SDS011;12780;45.502;9.146;2023-02-26T16:47:59;2.10;;;1.40;;
24644;SDS011;12780;45.502;9.146;2023-02-26T16:50:29;2.75;;;1.52;;
24644;SDS011;12780;45.502;9.146;2023-02-26T16:53:08;4.13;;;1.67;;
24644;SDS011;12780;45.502;9.146;2023-02-26T16:55:41;3.00;;;1.30;;
24644;SDS011;12780;45.502;9.146;2023-02-26T16:58:13;2.47;;;1.40;;
24644;SDS011;12780;45.502;9.146;2023-02-26T17:00:42;2.40;;;1.27;;
24644;SDS011;12780;45.502;9.146;2023-02-26T17:03:10;3.72;;;1.40;;
24644;SDS011;12780;45.502;9.146;2023-02-26T17:05:40;2.03;;;1.27;;
24644;SDS011;12780;45.502;9.146;2023-02-26T17:08:14;5.30;;;1.60;;
24644;SDS011;12780;45.502;9.146;2023-02-26T17:11:17;3.00;;;1.67;;
24644;SDS011;12780;45.502;9.146;2023-02-26T17:13:41;5.07;;;1.73;;
24644;SDS011;12780;45.502;9.146;2023-02-26T17:16:07;1.73;;;1.27;;
24644;SDS011;12780;45.502;9.146;2023-02-26T17:18:35;2.35;;;1.30;;
24644;SDS011;12780;45.502;9.146;2023-02-26T17:21:01;2.40;;;1.60;;
24644;SDS011;12780;45.502;9.146;2023-02-26T17:23:33;3.78;;;1.60;;
24644;SDS011;12780;45.502;9.146;2023-02-26T17:26:02;2.85;;;1.52;;
24644;SDS011;12780;45.502;9.146;2023-02-26T17:28:29;3.05;;;1.70;;
24644;SDS011;12780;45.502;9.146;2023-02-26T17:31:00;4.33;;;2.40;;
24644;SDS011;12780;45.502;9.146;2023-02-26T17:33:26;5.97;;;2.20;;
24644;SDS011;12780;45.502;9.146;2023-02-26T17:35:57;4.15;;;2.28;;
24644;SDS011;12780;45.502;9.146;2023-02-26T17:38:25;3.80;;;2.20;;
24644;SDS011;12780;45.502;9.146;2023-02-26T17:40:51;8.93;;;2.53;;
24644;SDS011;12780;45.502;9.146;2023-02-26T17:43:19;4.95;;;2.30;;
24644;SDS011;12780;45.502;9.146;2023-02-26T17:45:46;6.18;;;2.25;;
24644;SDS011;12780;45.502;9.146;2023-02-26T17:48:12;3.70;;;2.20;;
24644;SDS011;12780;45.502;9.146;2023-02-26T17:53:21;6.15;;;2.67;;
24644;SDS011;12780;45.502;9.146;2023-02-26T17:55:51;5.60;;;3.05;;
24644;SDS011;12780;45.502;9.146;2023-02-26T17:58:21;5.03;;;2.78;;
24644;SDS011;12780;45.502;9.146;2023-02-26T18:00:54;4.15;;;2.88;;
24644;SDS011;12780;45.502;9.146;2023-02-26T18:03:20;6.35;;;3.53;;
24644;SDS011;12780;45.502;9.146;2023-02-26T18:05:46;6.45;;;3.25;;
24644;SDS011;12780;45.502;9.146;2023-02-26T18:08:29;8.93;;;5.03;;
24644;SDS011;12780;45.502;9.146;2023-02-26T18:10:57;5.25;;;3.30;;
24644;SDS011;12780;45.502;9.146;2023-02-26T18:13:23;7.65;;;3.67;;
24644;SDS011;12780;45.502;9.146;2023-02-26T18:15:50;6.05;;;3.15;;